createdAt,value
2023-03-19T05:43:10.535Z,9.60
2023-03-19T05:48:12.377Z,9.50
2023-03-19T05:53:14.478Z,9.50
2023-03-19T05:58:17.011Z,9.50
2023-03-19T06:03:18.829Z,9.40
2023-03-19T06:08:21.527Z,9.40
2023-03-19T06:13:23.399Z,9.30
2023-03-19T06:18:28.222Z,9.30
2023-03-19T06:23:30.660Z,9.40
2023-03-19T06:28:33.031Z,9.30
2023-03-19T06:33:37.061Z,9.30
2023-03-19T06:38:38.944Z,9.30
2023-03-19T06:43:42.172Z,9.40
2023-03-19T06:48:44.015Z,9.30
2023-03-19T06:53:45.983Z,9.30
2023-03-19T06:58:47.815Z,9.30
2023-03-19T07:03:49.770Z,9.40
2023-03-19T07:08:51.577Z,9.40
2023-03-19T07:13:53.544Z,9.40
2023-03-19T07:18:56.281Z,9.40
2023-03-19T07:23:58.152Z,9.40
2023-03-19T07:29:00.722Z,9.40
2023-03-19T07:34:02.990Z,9.50
2023-03-19T07:39:05.042Z,9.60
2023-03-19T07:44:07.070Z,9.60
2023-03-19T07:49:09.149Z,9.70
2023-03-19T07:54:11.061Z,9.70
2023-03-19T07:59:12.943Z,9.80
2023-03-19T08:04:14.794Z,9.80
2023-03-19T08:09:17.117Z,10.00
2023-03-19T08:14:22.493Z,10.10
2023-03-19T08:19:24.466Z,10.10
2023-03-19T08:24:26.722Z,10.20
2023-03-19T08:29:28.610Z,10.30
2023-03-19T08:34:30.991Z,10.30
2023-03-19T08:39:32.771Z,10.40
2023-03-19T08:44:34.600Z,10.40
2023-03-19T08:49:36.837Z,10.60
2023-03-19T08:54:38.675Z,10.60
2023-03-19T08:59:40.551Z,10.70
2023-03-19T09:04:43.496Z,10.70
2023-03-19T09:09:45.789Z,10.80
2023-03-19T09:14:47.783Z,10.80
2023-03-19T09:19:49.825Z,10.90
2023-03-19T09:24:52.159Z,11.00
2023-03-19T09:29:54.211Z,11.10
2023-03-19T09:34:56.568Z,11.40
2023-03-19T09:39:58.496Z,11.60
2023-03-19T09:45:00.379Z,11.90
2023-03-19T09:50:23.558Z,12.20
2023-03-19T09:55:35.425Z,12.40
2023-03-19T10:00:38.017Z,12.50
2023-03-19T10:06:26.770Z,12.50
2023-03-19T10:11:48.400Z,12.60
2023-03-19T10:16:52.913Z,12.70
2023-03-19T10:22:05.939Z,12.90
2023-03-19T10:27:18.154Z,13.00
2023-03-19T10:32:46.658Z,13.10
2023-03-19T10:37:51.928Z,13.10
2023-03-19T10:42:56.482Z,13.30
2023-03-19T10:47:59.715Z,13.30
2023-03-19T10:53:27.492Z,13.30
2023-03-19T10:58:30.975Z,13.30
2023-03-19T11:03:36.842Z,13.60
2023-03-19T11:08:38.917Z,13.80
2023-03-19T11:13:41.056Z,13.90
2023-03-19T11:18:43.344Z,14.20
2023-03-19T11:23:45.126Z,14.30
2023-03-19T11:28:51.040Z,14.30
2023-03-19T11:34:11.560Z,14.30
2023-03-19T11:39:35.712Z,14.10
2023-03-19T11:44:58.297Z,14.00
2023-03-19T11:50:00.372Z,14.00
2023-03-19T11:55:32.938Z,13.90
2023-03-19T12:00:41.104Z,14.00
2023-03-19T12:05:52.072Z,13.90
2023-03-19T12:11:04.621Z,13.90
2023-03-19T12:16:13.721Z,13.90
2023-03-19T12:21:23.613Z,13.90
2023-03-19T12:26:34.445Z,14.00
2023-03-19T12:32:05.331Z,14.00
2023-03-19T12:37:17.504Z,14.20
2023-03-19T12:42:21.044Z,14.30
2023-03-19T12:47:31.719Z,14.70
2023-03-19T12:52:36.297Z,15.00
2023-03-19T12:57:54.081Z,15.00
2023-03-19T13:03:07.635Z,15.60
2023-03-19T13:08:53.989Z,16.10
2023-03-19T13:14:02.488Z,16.30
2023-03-19T13:19:29.570Z,16.70
2023-03-19T13:24:36.920Z,17.10
2023-03-19T13:29:53.822Z,17.60
2023-03-19T13:35:19.531Z,18.00
2023-03-19T13:40:48.695Z,17.90
2023-03-19T13:46:12.909Z,17.60
2023-03-19T13:51:22.094Z,17.50
2023-03-19T13:56:30.222Z,17.30
2023-03-19T14:01:38.768Z,17.60
2023-03-19T14:06:48.454Z,18.10
2023-03-19T14:11:50.955Z,17.90
2023-03-19T14:16:56.530Z,17.50
2023-03-19T14:22:05.702Z,17.00
2023-03-19T14:27:16.261Z,16.60
2023-03-19T14:32:20.719Z,16.30
2023-03-19T14:37:37.844Z,16.00
2023-03-19T14:43:22.227Z,15.80
2023-03-19T14:48:46.179Z,15.60
2023-03-19T14:53:54.613Z,15.40
2023-03-19T14:58:57.849Z,15.00
2023-03-19T15:04:06.905Z,14.90
2023-03-19T15:09:31.308Z,15.00
2023-03-19T15:14:43.687Z,15.10
2023-03-19T15:19:45.597Z,15.20
2023-03-19T15:24:48.325Z,15.00
2023-03-19T15:29:51.743Z,14.90
2023-03-19T15:34:56.715Z,14.90
2023-03-19T15:40:00.489Z,15.00
2023-03-19T15:45:07.600Z,14.90
2023-03-19T15:50:14.022Z,14.60
2023-03-19T15:55:16.910Z,14.30
2023-03-19T16:00:19.168Z,13.90
2023-03-19T16:05:29.708Z,13.80
2023-03-19T16:10:34.386Z,14.00
2023-03-19T16:15:47.833Z,14.20
2023-03-19T16:21:04.196Z,14.40
2023-03-19T16:26:17.448Z,14.40
2023-03-19T16:31:22.377Z,14.40
2023-03-19T16:36:28.732Z,14.20
2023-03-19T16:41:33.895Z,14.20
2023-03-19T16:46:35.999Z,14.10
2023-03-19T16:51:38.214Z,13.90
2023-03-19T16:56:40.275Z,13.50
2023-03-19T17:01:42.181Z,13.20
2023-03-19T17:06:44.170Z,12.80
2023-03-19T17:11:46.074Z,12.40
2023-03-19T17:16:50.838Z,12.10
2023-03-19T17:21:55.433Z,11.80
2023-03-19T17:26:58.854Z,11.50
2023-03-19T17:32:02.027Z,11.30
2023-03-19T17:37:04.436Z,11.10
2023-03-19T17:42:26.602Z,10.90
2023-03-19T17:47:28.619Z,10.80
2023-03-19T17:52:30.884Z,10.60
2023-03-19T17:57:32.738Z,10.60
2023-03-19T18:02:36.245Z,10.50
2023-03-19T18:07:38.232Z,10.40
2023-03-19T18:12:40.373Z,10.30
2023-03-19T18:17:48.164Z,10.30
2023-03-19T22:08:37.402Z,9.00
2023-03-19T22:14:11.393Z,9.00
2023-03-19T22:32:36.197Z,9.00
2023-03-19T22:37:51.365Z,9.00
2023-03-19T22:43:18.320Z,9.00
2023-03-19T22:48:38.533Z,9.00
2023-03-19T22:54:04.226Z,9.00
2023-03-19T22:59:35.716Z,9.00
2023-03-19T23:04:56.872Z,8.90
2023-03-19T23:11:02.549Z,8.90
2023-03-19T23:28:31.017Z,8.90
2023-03-19T23:34:57.728Z,8.80
2023-03-19T23:40:13.397Z,8.80
2023-03-19T23:46:33.860Z,8.80
2023-03-19T23:51:47.948Z,8.80
2023-03-19T23:57:04.581Z,8.80
